Time;durP1;ratioP1;P1;durP2;ratioP2;P2;SDS_P1;SDS_P2;PMS_P1;PMS_P2;Temp;Humidity;BMP_temperature;BMP_pressure;BME280_temperature;BME280_humidity;BME280_pressure;Samples;Min_cycle;Max_cycle;Signal;HPM_P1;HPM_P2
2021/11/29 00:02:09;;;;;;;39.00;22.82;;;;;;;0.69;85.41;98980.75;1675765;83;21142;-75
2021/11/29 00:04:35;;;;;;;39.13;22.50;;;;;;;0.67;85.44;98977.36;1668582;85;20994;-74
2021/11/29 00:07:02;;;;;;;40.40;22.35;;;;;;;0.67;85.52;98978.63;1702007;83;21069;-74
2021/11/29 00:09:28;;;;;;;;;;;;;;;0.68;85.56;98979.48;1693325;84;20935;-74
2021/11/29 00:11:54;;;;;;;36.28;20.27;;;;;;;0.69;85.61;98978.63;1696290;84;28274;-74
2021/11/29 00:14:21;;;;;;;37.83;21.05;;;;;;;0.69;85.62;98976.94;1683408;84;21410;-74
2021/11/29 00:16:47;;;;;;;36.98;21.17;;;;;;;0.71;85.61;98985.83;1700622;83;20971;-74
2021/11/29 00:19:13;;;;;;;36.23;21.33;;;;;;;0.71;85.53;98985.41;1700852;83;21582;-74
2021/11/29 00:21:40;;;;;;;38.95;20.88;;;;;;;0.70;85.59;98988.80;1688181;83;21086;-74
2021/11/29 00:24:06;;;;;;;32.60;19.57;;;;;;;0.69;85.62;98989.65;1685809;83;21097;-74
2021/11/29 00:26:33;;;;;;;31.48;19.48;;;;;;;0.69;85.56;98990.92;1684494;83;21017;-74
2021/11/29 00:28:59;;;;;;;;;;;;;;;0.70;85.61;98990.50;1656999;83;21078;-74
2021/11/29 00:31:25;;;;;;;34.85;18.52;;;;;;;0.69;85.71;98998.55;1680002;83;20209;-74
2021/11/29 00:33:53;;;;;;;33.35;19.25;;;;;;;0.70;85.71;98997.70;1652194;85;21365;-74
2021/11/29 00:36:20;;;;;;;31.70;17.70;;;;;;;0.70;85.70;98993.89;1700240;83;21044;-75
2021/11/29 00:38:46;;;;;;;33.28;19.25;;;;;;;0.72;85.65;98998.55;1669299;83;21062;-74
2021/11/29 00:41:14;;;;;;;32.13;18.42;;;;;;;0.71;85.61;98998.12;1695466;83;21052;-74
2021/11/29 00:43:40;;;;;;;;;;;;;;;0.71;85.65;98996.00;1688043;84;21114;-74
2021/11/29 00:46:06;;;;;;;28.05;17.62;;;;;;;0.71;85.76;98996.85;1700887;83;20180;-74
2021/11/29 00:48:32;;;;;;;30.32;16.93;;;;;;;0.71;85.70;98999.39;1685861;83;28263;-74
2021/11/29 00:50:59;;;;;;;30.25;17.37;;;;;;;0.72;85.71;99002.36;1699320;83;28198;-74
2021/11/29 00:53:25;;;;;;;28.95;16.37;;;;;;;0.72;85.75;98999.81;1685322;83;21106;-74
2021/11/29 00:55:51;;;;;;;27.20;16.85;;;;;;;0.74;85.73;98996.00;1696781;83;21113;-75
2021/11/29 00:58:17;;;;;;;26.75;16.48;;;;;;;0.73;85.73;98994.30;1682748;83;21074;-75
2021/11/29 01:00:44;;;;;;;24.30;15.13;;;;;;;0.74;85.71;98994.73;1672255;84;22683;-75
2021/11/29 01:03:11;;;;;;;24.40;15.10;;;;;;;0.73;85.68;98991.77;1692346;82;21097;-74
2021/11/29 01:05:37;;;;;;;;;;;;;;;0.74;85.69;98997.27;1703746;83;21002;-74
2021/11/29 01:08:04;;;;;;;21.48;14.00;;;;;;;0.74;85.75;98999.81;1701968;82;25660;-74
2021/11/29 01:10:32;;;;;;;25.32;15.55;;;;;;;0.73;85.75;98994.30;1684649;82;20990;-74
2021/11/29 01:12:58;;;;;;;25.50;14.90;;;;;;;0.73;85.82;98998.12;1700904;83;21076;-75
2021/11/29 01:15:28;;;;;;;;;;;;;;;0.74;85.88;98998.55;1703786;82;21122;-74
2021/11/29 01:18:07;;;;;;;26.07;14.28;;;;;;;0.74;85.91;99001.94;1719521;82;20211;-75
2021/11/29 01:20:29;;;;;;;22.42;14.28;;;;;;;0.75;85.88;99004.90;1708808;82;20999;-74
2021/11/29 01:22:55;;;;;;;22.07;13.58;;;;;;;0.76;85.83;99007.02;1687634;83;21499;-74
2021/11/29 01:25:22;;;;;;;21.02;13.20;;;;;;;0.76;85.80;99005.32;1671091;83;21123;-74
2021/11/29 01:27:48;;;;;;;15.32;10.10;;;;;;;0.76;85.83;99007.86;1701417;82;21082;-74
2021/11/29 01:30:14;;;;;;;23.07;14.10;;;;;;;0.79;85.89;99013.38;1706965;82;21126;-74
2021/11/29 01:32:41;;;;;;;22.73;13.62;;;;;;;0.80;85.80;99009.98;1701762;83;21001;-74
2021/11/29 01:35:08;;;;;;;23.52;14.07;;;;;;;0.81;85.88;99008.70;1702735;82;28740;-74
2021/11/29 01:37:35;;;;;;;23.60;13.30;;;;;;;0.82;85.83;99005.73;1713118;82;21075;-74
2021/11/29 01:40:05;;;;;;;21.73;14.58;;;;;;;0.83;85.91;99003.61;1704406;83;21062;-74
2021/11/29 01:42:31;;;;;;;23.67;14.58;;;;;;;0.84;85.92;99006.57;1675905;84;21083;-74
2021/11/29 01:44:59;;;;;;;22.55;12.95;;;;;;;0.85;85.91;99001.91;1720874;82;20972;-75
2021/11/29 01:47:28;;;;;;;21.00;12.63;;;;;;;0.86;85.84;99001.05;1686321;83;21047;-75
2021/11/29 01:49:54;;;;;;;19.00;13.05;;;;;;;0.86;85.84;99006.14;1701167;82;21006;-74
2021/11/29 01:52:21;;;;;;;19.37;12.60;;;;;;;0.84;85.85;99003.60;1696430;82;21060;-74
2021/11/29 01:54:47;;;;;;;20.25;12.30;;;;;;;0.85;85.84;99000.63;1709826;82;21114;-74
2021/11/29 01:57:14;;;;;;;20.80;12.28;;;;;;;0.85;85.91;99001.91;1702579;82;21008;-74
2021/11/29 01:59:41;;;;;;;21.48;12.98;;;;;;;0.87;86.00;98999.78;1702861;82;21000;-74
2021/11/29 02:02:07;;;;;;;18.57;11.38;;;;;;;0.87;85.96;99003.59;1680037;84;25269;-75
2021/11/29 02:04:34;;;;;;;18.05;12.28;;;;;;;0.88;85.96;99004.44;1691493;83;27645;-74
2021/11/29 02:07:00;;;;;;;;;;;;;;;0.87;85.95;99003.59;1678786;83;21135;-74
2021/11/29 02:09:32;;;;;;;16.20;11.18;;;;;;;0.90;86.09;98999.77;1676467;84;20677;-74
2021/11/29 02:11:58;;;;;;;16.45;11.18;;;;;;;0.92;85.97;99007.40;1664560;84;21088;-74
2021/11/29 02:14:25;;;;;;;16.17;10.82;;;;;;;0.91;86.00;99001.46;1690887;84;21075;-74
2021/11/29 02:16:51;;;;;;;16.90;11.75;;;;;;;0.92;86.02;99003.58;1676671;84;21079;-74
2021/11/29 02:19:18;;;;;;;14.23;10.30;;;;;;;0.93;86.02;99005.27;1680970;84;21075;-74
2021/11/29 02:21:44;;;;;;;;;;;;;;;0.92;86.01;99004.42;1693716;84;21071;-74
2021/11/29 02:24:10;;;;;;;;;;;;;;;0.93;86.10;99007.81;1681342;84;20150;-74
2021/11/29 02:26:39;;;;;;;15.28;10.60;;;;;;;0.94;86.11;99009.52;1676744;84;20229;-74
2021/11/29 02:29:13;;;;;;;13.75;10.48;;;;;;;0.94;86.11;99010.36;1673391;84;21622;-74
2021/11/29 02:31:46;;;;;;;16.15;11.35;;;;;;;0.94;86.06;99010.36;1679325;84;21107;-75
2021/11/29 02:34:21;;;;;;;19.67;11.88;;;;;;;0.95;86.10;99012.48;1667016;84;21538;-74
2021/11/29 02:36:53;;;;;;;16.23;11.13;;;;;;;0.97;86.18;99015.44;1666257;84;20993;-74
2021/11/29 02:39:20;;;;;;;16.02;11.57;;;;;;;0.98;86.14;99015.86;1674444;84;21397;-74
2021/11/29 02:41:49;;;;;;;16.15;10.88;;;;;;;0.98;86.14;99022.22;1630493;84;21588;-74
2021/11/29 02:44:17;;;;;;;16.07;10.65;;;;;;;0.99;86.09;99024.34;1675061;84;21417;-74
2021/11/29 02:46:44;;;;;;;11.80;9.38;;;;;;;0.97;86.07;99019.69;1690378;83;21623;-75
2021/11/29 02:49:13;;;;;;;13.50;9.58;;;;;;;0.97;86.01;99015.86;1646793;84;21556;-74
2021/11/29 02:51:47;;;;;;;11.63;9.78;;;;;;;0.95;86.02;99013.75;1665223;84;21122;-74
2021/11/29 02:54:17;;;;;;;13.88;9.28;;;;;;;0.93;85.93;99017.57;1675144;84;21051;-74
2021/11/29 02:56:48;;;;;;;11.43;9.08;;;;;;;0.90;86.04;99011.22;1692287;84;21094;-74
2021/11/29 02:59:22;;;;;;;11.45;8.43;;;;;;;0.89;86.05;99015.89;1671541;83;20871;-74
2021/11/29 03:01:54;;;;;;;12.45;8.75;;;;;;;0.89;86.12;99018.86;1692970;83;21074;-74
2021/11/29 03:04:27;;;;;;;11.95;8.60;;;;;;;0.88;86.08;99017.16;1668850;84;21147;-74
2021/11/29 03:06:55;;;;;;;14.40;8.33;;;;;;;0.89;86.13;99014.61;1685798;83;21068;-74
2021/11/29 03:09:21;;;;;;;11.08;8.13;;;;;;;0.87;86.05;99012.92;1643944;85;21582;-74
2021/11/29 03:11:48;;;;;;;;;;;;;;;0.86;86.06;99009.95;1670585;84;21038;-74
2021/11/29 03:14:15;;;;;;;14.20;8.35;;;;;;;0.84;86.12;99009.12;1687313;84;20204;-74
2021/11/29 03:16:42;;;;;;;14.18;8.98;;;;;;;0.85;86.20;99012.93;1682404;84;20995;-74
2021/11/29 03:19:09;;;;;;;11.90;8.95;;;;;;;0.85;86.15;99012.08;1678189;84;21105;-74
2021/11/29 03:21:35;;;;;;;13.28;9.45;;;;;;;0.85;86.22;99009.11;1691322;84;21067;-74
2021/11/29 03:24:05;;;;;;;;;;;;;;;0.84;86.14;99004.03;1680927;84;21057;-74
2021/11/29 03:26:35;;;;;;;11.30;8.28;;;;;;;0.85;86.28;99005.30;1655255;85;20199;-74
2021/11/29 03:29:06;;;;;;;16.37;10.35;;;;;;;0.86;86.21;99005.72;1705917;83;21058;-74
2021/11/29 03:31:34;;;;;;;16.93;10.48;;;;;;;0.86;86.28;99004.88;1682692;83;21101;-74
2021/11/29 03:34:03;;;;;;;15.78;10.45;;;;;;;0.87;86.30;99000.20;1695955;83;20967;-74
2021/11/29 03:36:32;;;;;;;16.57;10.70;;;;;;;0.90;86.27;99003.59;1694391;82;21069;-74
2021/11/29 03:39:01;;;;;;;19.87;12.25;;;;;;;0.89;86.29;99000.63;1717354;83;21262;-74
2021/11/29 03:41:28;;;;;;;21.05;12.20;;;;;;;0.89;86.27;98997.23;1692015;84;21040;-74
2021/11/29 03:43:55;;;;;;;23.67;13.03;;;;;;;0.89;86.19;98999.77;1691151;83;21014;-74
2021/11/29 03:46:22;;;;;;;30.88;14.63;;;;;;;0.87;86.18;99009.95;1693511;83;25467;-75
2021/11/29 03:48:48;;;;;;;26.85;15.48;;;;;;;0.86;86.22;98999.78;1663363;84;21059;-75
2021/11/29 03:51:16;;;;;;;26.55;14.60;;;;;;;0.86;86.26;99005.72;1692844;83;21074;-75
2021/11/29 03:53:42;;;;;;;;;;;;;;;0.86;86.30;99001.05;1696932;84;21393;-75
2021/11/29 03:56:09;;;;;;;28.90;14.95;;;;;;;0.86;86.30;99004.45;1694764;83;20206;-75
2021/11/29 03:58:35;;;;;;;;;;;;;;;0.86;86.28;99005.72;1699323;83;21069;-74
2021/11/29 04:01:01;;;;;;;;;;;;;;;0.85;86.25;99006.99;1694836;83;20201;-74
2021/11/29 04:03:27;;;;;;;32.67;16.60;;;;;;;0.84;86.35;99009.96;1693993;83;20434;-74
2021/11/29 04:05:56;;;;;;;37.40;19.40;;;;;;;0.85;86.33;99009.54;1667292;84;21510;-74
2021/11/29 04:08:22;;;;;;;36.98;19.00;;;;;;;0.84;86.27;99008.69;1692635;83;21071;-74
2021/11/29 04:10:48;;;;;;;34.50;18.85;;;;;;;0.84;86.34;99007.42;1675503;83;21069;-74
2021/11/29 04:13:15;;;;;;;46.13;20.80;;;;;;;0.84;86.38;99012.51;1663319;84;20987;-74
2021/11/29 04:15:43;;;;;;;39.53;19.48;;;;;;;0.88;86.41;99019.70;1692896;83;21046;-74
2021/11/29 04:18:09;;;;;;;41.00;19.32;;;;;;;0.89;86.44;99022.25;1692575;83;21070;-75
2021/11/29 04:20:35;;;;;;;43.45;21.62;;;;;;;0.89;86.41;99020.98;1682357;83;21587;-71
2021/11/29 04:23:04;;;;;;;40.55;19.90;;;;;;;0.91;86.42;99021.82;1699303;84;21049;-71
2021/11/29 04:25:39;;;;;;;42.30;21.48;;;;;;;0.91;86.39;99025.63;1701396;83;21073;-71
2021/11/29 04:27:59;;;;;;;41.18;21.02;;;;;;;0.93;86.40;99034.54;1673900;84;21099;-71
2021/11/29 04:30:26;;;;;;;;;;;;;;;0.92;86.38;99033.69;1718064;83;21056;-71
2021/11/29 04:32:55;;;;;;;43.73;21.10;;;;;;;0.90;86.24;99032.84;1682908;83;20203;-71
2021/11/29 04:35:22;;;;;;;40.83;20.92;;;;;;;0.87;86.37;99036.67;1684527;84;21055;-71
2021/11/29 04:37:49;;;;;;;34.60;18.92;;;;;;;0.89;86.40;99035.39;1683090;83;21078;-71
2021/11/29 04:40:15;;;;;;;;;;;;;;;0.91;86.40;99037.52;1686863;84;21068;-71
2021/11/29 04:42:42;;;;;;;37.05;19.37;;;;;;;0.88;86.42;99037.52;1685302;84;20113;-71
2021/11/29 04:45:08;;;;;;;36.53;20.55;;;;;;;0.90;86.42;99038.36;1675852;84;21583;-71
2021/11/29 04:47:35;;;;;;;36.30;18.55;;;;;;;0.88;86.43;99036.25;1692667;83;21132;-71
2021/11/29 04:50:01;;;;;;;;;;;;;;;0.87;86.41;99039.22;1680937;83;21080;-71
2021/11/29 04:52:31;;;;;;;34.25;17.30;;;;;;;0.86;86.49;99042.61;1696621;81;20450;-71
2021/11/29 04:54:57;;;;;;;39.30;19.30;;;;;;;0.88;86.46;99048.55;1691578;83;21108;-72
2021/11/29 04:57:24;;;;;;;37.80;19.57;;;;;;;0.87;86.40;99054.91;1688582;84;21486;-71
2021/11/29 04:59:50;;;;;;;34.38;17.80;;;;;;;0.87;86.42;99053.64;1661853;85;21074;-72
2021/11/29 05:02:17;;;;;;;37.45;17.92;;;;;;;0.86;86.43;99056.61;1650740;85;21071;-71
2021/11/29 05:04:46;;;;;;;34.20;18.37;;;;;;;0.85;86.45;99054.91;1675841;84;21635;-70
2021/11/29 05:07:11;;;;;;;35.13;17.32;;;;;;;0.83;86.47;99057.88;1676625;83;21583;-71
2021/11/29 05:09:40;;;;;;;31.87;17.70;;;;;;;0.84;86.45;99051.09;1684227;83;21062;-71
2021/11/29 05:12:08;;;;;;;39.78;19.27;;;;;;;0.83;86.44;99051.95;1662078;85;21062;-71
2021/11/29 05:14:34;;;;;;;35.70;18.87;;;;;;;0.82;86.41;99054.06;1673930;85;21005;-71
2021/11/29 05:17:00;;;;;;;31.15;16.80;;;;;;;0.81;86.45;99048.13;1698485;82;21580;-71
2021/11/29 05:19:26;;;;;;;29.63;17.57;;;;;;;0.81;86.49;99060.85;1700800;83;21057;-71
2021/11/29 05:21:54;;;;;;;34.78;17.87;;;;;;;0.80;86.43;99064.25;1692741;83;22130;-71
2021/11/29 05:24:20;;;;;;;27.32;15.60;;;;;;;0.79;86.49;99061.70;1675719;83;21055;-71
2021/11/29 05:26:46;;;;;;;;;;;;;;;0.81;86.54;99071.03;1680193;84;20948;-71
2021/11/29 05:29:16;;;;;;;35.38;17.82;;;;;;;0.80;86.47;99068.48;1679259;84;20231;-71
2021/11/29 05:31:43;;;;;;;36.15;18.48;;;;;;;0.80;86.51;99069.76;1662034;83;21110;-71
2021/11/29 05:34:13;;;;;;;35.60;17.80;;;;;;;0.80;86.51;99073.58;1682466;83;21352;-71
2021/11/29 05:36:40;;;;;;;36.25;19.70;;;;;;;0.79;86.49;99076.55;1691783;83;20888;-71
2021/11/29 05:39:07;;;;;;;32.70;18.57;;;;;;;0.79;86.43;99070.61;1681880;83;20881;-73
2021/11/29 05:41:33;;;;;;;;;;;;;;;0.77;86.48;99071.04;1668784;83;20892;-74
2021/11/29 05:43:59;;;;;;;;;;;;;;;0.79;86.60;99069.34;1687116;83;20746;-74
2021/11/29 05:46:25;;;;;;;35.25;18.50;;;;;;;0.80;86.55;99068.06;1689861;83;20127;-74
2021/11/29 05:48:52;;;;;;;35.17;19.77;;;;;;;0.79;86.56;99071.45;1694033;83;24013;-74
2021/11/29 05:51:19;;;;;;;37.28;18.95;;;;;;;0.80;86.50;99078.66;1687337;83;20943;-74
2021/11/29 05:53:47;;;;;;;35.50;19.17;;;;;;;0.79;86.57;99076.55;1702305;83;21079;-71
2021/11/29 05:56:15;;;;;;;39.55;19.48;;;;;;;0.82;86.62;99078.23;1710056;83;20967;-71
2021/11/29 05:58:41;;;;;;;38.50;20.50;;;;;;;0.81;86.55;99079.94;1690631;83;20915;-71
2021/11/29 06:01:08;;;;;;;38.83;20.10;;;;;;;0.83;86.67;99083.75;1686600;83;21135;-71
2021/11/29 06:03:34;;;;;;;38.55;20.57;;;;;;;0.83;86.58;99089.69;1633109;86;21152;-71
2021/11/29 06:06:00;;;;;;;;;;;;;;;0.85;86.66;99092.23;1658629;85;21054;-72
2021/11/29 06:08:27;;;;;;;41.15;20.97;;;;;;;0.83;86.55;99090.95;1625363;86;20769;-71
2021/11/29 06:10:53;;;;;;;42.15;21.27;;;;;;;0.83;86.59;99092.66;1678858;84;20969;-71
2021/11/29 06:13:20;;;;;;;43.02;21.95;;;;;;;0.83;86.62;99097.74;1675159;84;21532;-71
2021/11/29 06:15:47;;;;;;;37.05;20.80;;;;;;;0.84;86.68;99099.44;1688828;83;21036;-71
2021/11/29 06:18:13;;;;;;;46.63;21.80;;;;;;;0.85;86.59;99099.86;1668156;84;22362;-71
2021/11/29 06:20:40;;;;;;;43.20;22.42;;;;;;;0.85;86.63;99098.59;1663677;84;21126;-71
2021/11/29 06:23:06;;;;;;;;;;;;;;;0.84;86.62;99099.44;1678239;84;21368;-71
2021/11/29 06:25:32;;;;;;;;;;;;;;;0.83;86.65;99099.86;1666958;84;20169;-71
2021/11/29 06:27:59;;;;;;;43.58;22.17;;;;;;;0.83;86.66;99104.95;1670800;84;20117;-71
2021/11/29 06:30:27;;;;;;;44.03;22.25;;;;;;;0.83;86.62;99099.02;1677833;83;21048;-71
2021/11/29 06:32:53;;;;;;;;;;;;;;;0.82;86.64;99108.77;1694027;84;21025;-71
2021/11/29 06:35:20;;;;;;;44.70;21.77;;;;;;;0.84;86.76;99111.73;1680263;84;20131;-71
2021/11/29 06:37:52;;;;;;;;;;;;;;;0.85;86.65;99111.31;1690030;84;21063;-71
2021/11/29 06:40:19;;;;;;;39.10;21.23;;;;;;;0.84;86.65;99112.16;1636170;86;20108;-71
2021/11/29 06:42:45;;;;;;;43.05;22.17;;;;;;;0.84;86.73;99115.55;1642115;86;26538;-71
2021/11/29 06:45:11;;;;;;;48.23;23.57;;;;;;;0.84;86.65;99116.83;1667872;84;26516;-71
2021/11/29 06:47:41;;;;;;;47.70;24.12;;;;;;;0.85;86.71;99118.95;1679614;83;21584;-71
2021/11/29 06:50:11;;;;;;;44.15;21.97;;;;;;;0.86;86.74;99119.37;1673739;84;21067;-73
2021/11/29 06:52:37;;;;;;;47.53;24.23;;;;;;;0.87;86.74;99123.19;1675809;82;21131;-72
2021/11/29 06:55:06;;;;;;;37.75;21.65;;;;;;;0.88;86.73;99122.33;1658752;85;38493;-72
2021/11/29 06:57:35;;;;;;;41.02;22.73;;;;;;;0.86;86.66;99117.67;1672219;84;21444;-72
2021/11/29 07:00:02;;;;;;;39.65;22.35;;;;;;;0.87;86.68;99127.00;1672886;84;21574;-72
2021/11/29 07:02:29;;;;;;;38.75;22.02;;;;;;;0.86;86.63;99124.03;1678803;83;21053;-72
2021/11/29 07:04:58;;;;;;;42.25;21.77;;;;;;;0.84;86.64;99121.91;1682449;84;21671;-72
2021/11/29 07:07:25;;;;;;;47.45;24.07;;;;;;;0.86;86.71;99129.55;1671056;83;21388;-72
2021/11/29 07:09:51;;;;;;;40.43;21.40;;;;;;;0.86;86.75;99129.55;1677004;83;21147;-72
2021/11/29 07:12:18;;;;;;;44.03;23.30;;;;;;;0.88;86.74;99130.39;1680059;83;21080;-72
2021/11/29 07:14:44;;;;;;;39.70;22.98;;;;;;;0.90;86.82;99137.17;1678270;85;21124;-72
2021/11/29 07:17:11;;;;;;;41.23;22.20;;;;;;;0.91;86.79;99145.23;1699731;83;21062;-73
2021/11/29 07:19:39;;;;;;;41.33;22.50;;;;;;;0.92;86.75;99148.63;1678478;84;21534;-72
2021/11/29 07:22:06;;;;;;;45.08;23.40;;;;;;;0.93;86.80;99147.77;1674289;84;21515;-72
2021/11/29 07:24:34;;;;;;;43.55;23.90;;;;;;;0.95;86.77;99149.89;1682582;84;21499;-72
2021/11/29 07:27:00;;;;;;;48.42;24.72;;;;;;;0.95;86.80;99148.63;1686825;84;21049;-72
2021/11/29 07:29:27;;;;;;;;;;;;;;;0.95;86.76;99152.02;1685858;83;21112;-72
2021/11/29 07:31:54;;;;;;;40.52;21.65;;;;;;;0.96;86.86;99151.16;1689000;83;20494;-73
2021/11/29 07:34:20;;;;;;;43.30;22.22;;;;;;;0.98;86.81;99154.98;1701758;83;21431;-72
2021/11/29 07:36:47;;;;;;;42.40;23.38;;;;;;;0.97;86.78;99156.68;1693243;83;21704;-73
2021/11/29 07:39:13;;;;;;;40.50;20.45;;;;;;;0.98;86.79;99157.53;1687625;83;20990;-73
2021/11/29 07:41:39;;;;;;;43.63;22.60;;;;;;;0.98;86.81;99157.10;1681465;83;21148;-73
2021/11/29 07:44:06;;;;;;;43.80;22.73;;;;;;;0.97;86.75;99158.38;1676694;84;21120;-72
2021/11/29 07:46:34;;;;;;;44.55;21.77;;;;;;;0.96;86.75;99165.16;1683941;84;21553;-72
2021/11/29 07:49:00;;;;;;;42.00;21.37;;;;;;;0.97;86.80;99160.92;1691602;84;21102;-72
2021/11/29 07:51:28;;;;;;;39.53;21.95;;;;;;;0.98;86.80;99165.16;1694270;83;21767;-73
2021/11/29 07:53:55;;;;;;;42.17;22.15;;;;;;;0.98;86.84;99167.70;1690611;83;20875;-72
2021/11/29 07:56:21;;;;;;;47.90;23.15;;;;;;;0.98;86.82;99171.09;1686659;83;20955;-72
2021/11/29 07:58:48;;;;;;;46.50;21.87;;;;;;;0.99;86.80;99179.58;1693681;83;21382;-73
2021/11/29 08:01:15;;;;;;;42.15;21.35;;;;;;;0.99;86.84;99185.95;1686375;83;21038;-72
2021/11/29 08:03:42;;;;;;;40.95;21.60;;;;;;;0.99;86.83;99184.67;1662957;84;21055;-72
2021/11/29 08:06:08;;;;;;;43.83;21.35;;;;;;;1.00;86.78;99185.09;1682226;84;21088;-72
2021/11/29 08:08:34;;;;;;;;;;;;;;;0.98;86.78;99189.34;1671623;84;20974;-72
2021/11/29 08:11:00;;;;;;;;;;;;;;;0.99;86.86;99191.88;1660152;86;20287;-72
2021/11/29 08:13:27;;;;;;;40.28;19.32;;;;;;;1.02;86.93;99187.64;1658401;84;20180;-73
2021/11/29 08:15:53;;;;;;;41.10;20.97;;;;;;;1.01;86.82;99184.25;1668265;84;21418;-73
2021/11/29 08:18:19;;;;;;;39.00;20.68;;;;;;;1.02;86.83;99193.58;1680015;84;21047;-73
2021/11/29 08:20:46;;;;;;;37.90;20.85;;;;;;;1.03;86.85;99195.27;1675750;83;21550;-73
2021/11/29 08:23:12;;;;;;;36.23;21.33;;;;;;;1.05;86.85;99195.24;1667170;84;22162;-72
2021/11/29 08:25:40;;;;;;;38.78;21.52;;;;;;;1.09;86.93;99193.97;1662330;84;21117;-72
2021/11/29 08:28:09;;;;;;;44.10;22.82;;;;;;;1.15;86.93;99193.11;1653822;84;21561;-73
2021/11/29 08:30:36;;;;;;;41.53;21.05;;;;;;;1.22;87.01;99198.20;1662749;83;21413;-72
2021/11/29 08:33:02;;;;;;;38.35;20.77;;;;;;;1.30;86.96;99197.77;1687428;83;21491;-72
2021/11/29 08:35:29;;;;;;;;;;;;;;;1.34;86.99;99190.97;1681475;83;21435;-72
2021/11/29 08:37:58;;;;;;;40.30;21.12;;;;;;;1.39;87.02;99194.36;1689959;83;20110;-72
2021/11/29 08:40:29;;;;;;;39.33;20.90;;;;;;;1.42;86.90;99188.41;1679265;83;20912;-72
2021/11/29 08:43:03;;;;;;;36.77;21.17;;;;;;;1.43;86.92;99192.23;1691821;83;21244;-72
2021/11/29 08:45:32;;;;;;;43.75;24.27;;;;;;;1.43;86.81;99194.77;1683668;83;20923;-72
2021/11/29 08:48:02;;;;;;;39.63;23.25;;;;;;;1.43;86.84;99202.84;1677062;84;21402;-72
2021/11/29 08:50:28;;;;;;;39.08;21.52;;;;;;;1.41;86.82;99204.54;1711114;83;20930;-72
2021/11/29 08:53:02;;;;;;;44.80;22.02;;;;;;;1.41;86.83;99213.03;1670733;84;20948;-73
2021/11/29 08:55:29;;;;;;;36.38;20.85;;;;;;;1.41;86.84;99211.75;1656479;84;20901;-72
2021/11/29 08:57:57;;;;;;;42.17;23.18;;;;;;;1.44;86.88;99210.91;1688826;83;20954;-72
2021/11/29 09:00:25;;;;;;;42.75;22.35;;;;;;;1.46;86.94;99209.20;1706307;83;21346;-72
2021/11/29 09:02:52;;;;;;;42.98;22.17;;;;;;;1.50;86.88;99209.62;1680853;83;21408;-73
2021/11/29 09:05:18;;;;;;;;;;;;;;;1.47;86.80;99204.53;1669400;84;20940;-73
2021/11/29 09:07:45;;;;;;;44.18;22.67;;;;;;;1.46;86.85;99205.38;1663739;84;20114;-73
2021/11/29 09:10:13;;;;;;;42.08;22.80;;;;;;;1.49;86.95;99202.83;1683379;84;20876;-73
2021/11/29 09:12:41;;;;;;;39.40;21.70;;;;;;;1.51;86.92;99203.25;1673646;84;21111;-73
2021/11/29 09:15:10;;;;;;;;;;;;;;;1.54;86.96;99198.14;1679834;84;20983;-73
2021/11/29 09:17:37;;;;;;;39.65;21.15;;;;;;;1.55;86.92;99196.45;1674231;84;20097;-72
2021/11/29 09:20:07;;;;;;;48.65;23.62;;;;;;;1.58;86.97;99195.13;1675890;84;21433;-72
2021/11/29 09:22:34;;;;;;;48.35;26.60;;;;;;;1.60;86.92;99195.55;1670814;84;20913;-72
2021/11/29 09:25:01;;;;;;;35.00;19.15;;;;;;;1.61;86.87;99195.13;1676669;84;21351;-72
2021/11/29 09:27:28;;;;;;;34.70;18.48;;;;;;;1.62;86.89;99193.00;1671354;84;20897;-72
2021/11/29 09:29:54;;;;;;;;;;;;;;;1.61;86.85;99188.33;1673906;84;21074;-72
2021/11/29 09:32:20;;;;;;;;;;;;;;;1.63;86.88;99183.23;1671503;84;20250;-72
2021/11/29 09:34:48;;;;;;;28.23;17.23;;;;;;;1.62;86.80;99191.73;1676463;84;20182;-72
2021/11/29 09:37:16;;;;;;;28.42;16.15;;;;;;;1.60;86.84;99190.45;1679325;84;21082;-72
2021/11/29 09:39:43;;;;;;;27.02;15.63;;;;;;;1.60;86.84;99194.28;1675969;84;21154;-72
2021/11/29 09:42:09;;;;;;;27.90;18.15;;;;;;;1.60;86.85;99197.25;1667217;84;20898;-72
2021/11/29 09:44:35;;;;;;;25.75;15.85;;;;;;;1.58;86.79;99197.25;1674562;85;21301;-72
2021/11/29 09:47:02;;;;;;;26.73;15.00;;;;;;;1.55;86.78;99193.90;1675672;84;20911;-72
2021/11/29 09:49:29;;;;;;;28.47;15.70;;;;;;;1.53;86.78;99193.91;1692600;84;20954;-73
2021/11/29 09:51:57;;;;;;;;;;;;;;;1.48;86.78;99185.84;1690166;82;20938;-72
2021/11/29 09:54:23;;;;;;;27.35;15.72;;;;;;;1.46;86.82;99183.73;1679717;84;20136;-72
2021/11/29 09:56:53;;;;;;;29.02;15.85;;;;;;;1.45;86.84;99190.52;1673789;83;20895;-73
2021/11/29 09:59:23;;;;;;;29.95;16.57;;;;;;;1.34;86.85;99174.42;1644444;85;20892;-72
2021/11/29 10:01:46;;;;;;;25.12;15.35;;;;;;;1.44;86.83;99190.10;1691922;83;20904;-72
2021/11/29 10:04:14;;;;;;;29.82;16.75;;;;;;;1.45;86.91;99183.31;1689410;83;20913;-72
2021/11/29 10:06:41;;;;;;;29.45;16.07;;;;;;;1.46;86.86;99183.30;1692585;82;20941;-72
2021/11/29 10:09:30;;;;;;;27.58;15.85;;;;;;;1.47;86.90;99185.00;1694970;83;21384;-72
2021/11/29 10:12:13;;;;;;;25.77;14.78;;;;;;;1.48;86.88;99193.06;1664420;84;20869;-72
2021/11/29 10:14:39;;;;;;;23.50;14.43;;;;;;;1.50;86.88;99190.52;1690498;83;21015;-72
2021/11/29 10:17:06;;;;;;;25.95;14.25;;;;;;;1.52;86.92;99187.54;1690826;83;20931;-72
2021/11/29 10:19:36;;;;;;;24.02;14.10;;;;;;;1.52;86.88;99193.91;1670646;84;20922;-72
2021/11/29 10:22:22;;;;;;;24.82;14.35;;;;;;;1.48;86.84;99192.22;1696032;83;21386;-72
2021/11/29 10:24:51;;;;;;;23.50;13.53;;;;;;;1.48;86.83;99184.58;1706510;83;20889;-72
2021/11/29 10:27:19;;;;;;;27.25;14.85;;;;;;;1.48;86.88;99187.97;1701731;83;20955;-72
2021/11/29 10:29:52;;;;;;;25.57;13.83;;;;;;;1.50;86.90;99182.45;1667484;84;20915;-72
2021/11/29 10:32:34;;;;;;;23.50;14.13;;;;;;;1.52;86.92;99181.17;1666680;84;20915;-72
2021/11/29 10:35:04;;;;;;;22.82;14.25;;;;;;;1.53;86.92;99189.23;1674949;84;20949;-72
2021/11/29 10:37:37;;;;;;;25.25;14.05;;;;;;;1.52;86.83;99187.54;1671837;84;20916;-73
2021/11/29 10:40:14;;;;;;;20.62;13.55;;;;;;;1.51;86.88;99189.23;1683622;84;20959;-73
2021/11/29 10:42:42;;;;;;;25.88;13.95;;;;;;;1.54;86.92;99185.41;1681916;84;20924;-72
2021/11/29 10:45:12;;;;;;;26.50;13.65;;;;;;;1.56;86.90;99180.31;1662086;85;20927;-72
2021/11/29 10:47:39;;;;;;;22.05;12.33;;;;;;;1.55;86.89;99182.44;1686116;83;20920;-72
2021/11/29 10:50:07;;;;;;;20.27;12.33;;;;;;;1.57;86.90;99179.00;1698711;82;20947;-72
2021/11/29 10:52:34;;;;;;;20.43;12.55;;;;;;;1.59;86.90;99181.55;1690186;83;20951;-73
2021/11/29 10:55:02;;;;;;;20.77;12.65;;;;;;;1.59;86.88;99168.81;1694096;82;20994;-73
2021/11/29 10:57:29;;;;;;;21.33;13.32;;;;;;;1.61;86.93;99184.94;1689638;83;21048;-72
2021/11/29 10:59:59;;;;;;;23.70;12.47;;;;;;;1.60;86.83;99180.69;1697838;82;21061;-73
2021/11/29 11:02:30;;;;;;;21.60;11.85;;;;;;;1.60;86.90;99183.23;1657843;83;21078;-73
2021/11/29 11:05:09;;;;;;;22.80;12.55;;;;;;;1.59;86.83;99181.55;1691529;83;20967;-73
2021/11/29 11:07:39;;;;;;;23.42;13.90;;;;;;;1.59;86.88;99178.57;1688507;83;20955;-73
2021/11/29 11:10:14;;;;;;;23.98;12.88;;;;;;;1.58;86.86;99180.70;1677439;84;20945;-73
2021/11/29 11:12:41;;;;;;;20.65;12.40;;;;;;;1.59;86.89;99191.73;1679748;84;20948;-73
2021/11/29 11:15:12;;;;;;;23.77;12.33;;;;;;;1.61;86.84;99188.75;1665335;84;25240;-72
2021/11/29 11:17:39;;;;;;;20.25;12.15;;;;;;;1.59;86.87;99184.94;1663550;84;20924;-72
2021/11/29 11:20:14;;;;;;;23.62;13.18;;;;;;;1.61;86.88;99186.20;1667446;85;20984;-72
2021/11/29 11:22:46;;;;;;;27.45;13.22;;;;;;;1.59;86.83;99191.31;1693318;83;21124;-72
2021/11/29 11:25:22;;;;;;;24.07;13.43;;;;;;;1.59;86.85;99184.94;1716461;83;21325;-72
2021/11/29 11:28:05;;;;;;;26.77;14.58;;;;;;;1.57;86.83;99180.27;1662682;84;427319;-72
2021/11/29 11:30:42;;;;;;;28.95;14.35;;;;;;;1.56;86.82;99184.95;1676970;84;21015;-73
2021/11/29 11:33:14;;;;;;;36.40;15.48;;;;;;;1.55;86.80;99181.16;1661391;85;21054;-73
2021/11/29 11:35:47;;;;;;;29.48;15.25;;;;;;;1.53;86.78;99177.77;1662900;85;20976;-73
2021/11/29 11:38:21;;;;;;;28.25;15.68;;;;;;;1.49;86.77;99179.48;1653343;84;20965;-72